createdAt,value
2023-04-16T00:00:09.445Z,64.82
2023-04-16T00:03:01.268Z,64.87
2023-04-16T00:05:29.393Z,64.97
2023-04-16T00:07:57.472Z,64.89
2023-04-16T00:10:25.466Z,64.85
2023-04-16T00:12:53.354Z,64.70
2023-04-16T00:15:21.348Z,64.79
2023-04-16T00:17:49.269Z,64.63
2023-04-16T00:20:17.309Z,64.63
2023-04-16T00:22:45.427Z,64.75
2023-04-16T00:25:14.083Z,64.75
2023-04-16T00:27:41.945Z,64.76
2023-04-16T00:30:10.130Z,64.80
2023-04-16T00:32:38.065Z,64.77
2023-04-16T00:35:06.623Z,64.72
2023-04-16T00:37:34.554Z,64.81
2023-04-16T00:40:02.572Z,64.84
2023-04-16T00:42:30.891Z,65.02
2023-04-16T00:44:58.799Z,64.92
2023-04-16T00:47:28.170Z,64.98
2023-04-16T00:49:56.197Z,65.01
2023-04-16T00:52:24.746Z,65.03
2023-04-16T00:54:54.002Z,64.99
2023-04-16T00:57:24.021Z,64.99
2023-04-16T00:59:52.095Z,64.92
2023-04-16T01:02:20.170Z,65.09
2023-04-16T01:04:52.131Z,65.47
2023-04-16T01:07:21.601Z,65.84
2023-04-16T01:09:49.808Z,66.16
2023-04-16T01:12:17.796Z,66.22
2023-04-16T01:14:45.838Z,66.22
2023-04-16T01:17:14.443Z,66.18
2023-04-16T01:19:42.704Z,66.22
2023-04-16T01:22:10.835Z,66.32
2023-04-16T01:24:39.681Z,66.26
2023-04-16T01:27:11.469Z,66.36
2023-04-16T01:29:39.724Z,66.32
2023-04-16T01:32:08.209Z,66.21
2023-04-16T01:34:38.142Z,66.28
2023-04-16T01:37:06.133Z,66.31
2023-04-16T01:39:34.074Z,66.21
2023-04-16T01:42:02.631Z,66.10
2023-04-16T01:44:31.165Z,66.19
2023-04-16T01:46:59.268Z,66.08
2023-04-16T01:49:28.159Z,65.98
2023-04-16T01:51:56.197Z,65.86
2023-04-16T01:54:23.980Z,65.68
2023-04-16T01:56:51.860Z,65.53
2023-04-16T01:59:20.573Z,65.48
2023-04-16T02:01:48.552Z,65.34
2023-04-16T02:04:16.808Z,65.47
2023-04-16T02:06:44.925Z,65.32
2023-04-16T02:09:22.891Z,65.27
2023-04-16T02:11:50.866Z,65.22
2023-04-16T02:14:18.851Z,65.26
2023-04-16T02:16:46.940Z,65.40
2023-04-16T02:19:27.531Z,65.48
2023-04-16T02:21:55.622Z,65.56
2023-04-16T02:24:23.437Z,65.65
2023-04-16T02:26:51.844Z,65.85
2023-04-16T02:29:20.107Z,66.01
2023-04-16T02:31:53.579Z,66.01
2023-04-16T02:34:21.677Z,65.92
2023-04-16T02:36:50.088Z,65.86
2023-04-16T02:39:18.134Z,65.73
2023-04-16T02:41:46.475Z,65.59
2023-04-16T02:44:14.586Z,65.44
2023-04-16T02:46:42.446Z,65.49
2023-04-16T02:49:10.931Z,65.51
2023-04-16T02:51:38.986Z,65.46
2023-04-16T02:54:06.861Z,65.36
2023-04-16T02:56:34.723Z,65.31
2023-04-16T02:59:02.596Z,65.27
2023-04-16T03:01:30.713Z,65.19
2023-04-16T03:03:58.641Z,65.13
2023-04-16T03:06:27.185Z,65.13
2023-04-16T03:08:55.301Z,64.92
2023-04-16T03:11:23.738Z,64.85
2023-04-16T03:13:51.639Z,64.99
2023-04-16T03:16:19.732Z,64.92
2023-04-16T03:18:47.728Z,65.01
2023-04-16T03:21:18.489Z,64.93
2023-04-16T03:23:46.368Z,64.95
2023-04-16T03:26:14.173Z,65.03
2023-04-16T03:28:42.397Z,65.22
2023-04-16T03:31:10.993Z,65.24
2023-04-16T03:33:39.139Z,65.40
2023-04-16T03:36:07.383Z,65.55
2023-04-16T03:38:35.256Z,65.65
2023-04-16T03:41:03.181Z,65.72
2023-04-16T03:43:32.334Z,65.92
2023-04-16T03:46:00.348Z,65.81
2023-04-16T03:48:28.333Z,65.79
2023-04-16T03:50:56.332Z,65.79
2023-04-16T03:53:24.370Z,65.78
2023-04-16T03:55:52.827Z,65.73
2023-04-16T03:58:21.494Z,65.79
2023-04-16T04:00:49.396Z,65.83
2023-04-16T04:03:18.127Z,65.75
2023-04-16T04:05:47.454Z,65.69
2023-04-16T04:08:17.513Z,65.72
2023-04-16T04:10:46.081Z,65.72
2023-04-16T04:13:14.827Z,65.72
2023-04-16T04:15:44.798Z,65.62
2023-04-16T04:18:12.695Z,65.84
2023-04-16T04:20:41.380Z,65.89
2023-04-16T04:23:09.574Z,65.75
2023-04-16T04:25:37.472Z,65.72
2023-04-16T04:28:05.347Z,65.74
2023-04-16T04:30:33.180Z,65.60
2023-04-16T04:33:01.219Z,65.61
2023-04-16T04:35:29.221Z,65.58
2023-04-16T04:37:58.595Z,65.66
2023-04-16T04:40:27.692Z,65.78
2023-04-16T04:42:55.509Z,65.59
2023-04-16T04:45:28.456Z,65.43
2023-04-16T04:47:57.518Z,65.35
2023-04-16T04:50:25.582Z,65.31
2023-04-16T04:52:53.508Z,65.59
2023-04-16T04:55:22.681Z,65.78
2023-04-16T04:57:51.684Z,66.19
2023-04-16T05:00:20.967Z,66.24
2023-04-16T05:02:53.961Z,66.43
2023-04-16T05:05:22.211Z,66.47
2023-04-16T05:07:50.164Z,66.71
2023-04-16T05:10:18.090Z,66.82
2023-04-16T05:12:49.165Z,66.92
2023-04-16T05:15:17.314Z,66.84
2023-04-16T05:17:45.609Z,66.76
2023-04-16T05:20:13.725Z,66.76
2023-04-16T05:22:41.799Z,66.76
2023-04-16T05:25:10.426Z,66.67
2023-04-16T05:27:38.638Z,66.73
2023-04-16T05:30:07.213Z,67.09
2023-04-16T05:32:35.266Z,67.20
2023-04-16T05:35:03.135Z,67.40
2023-04-16T05:37:31.268Z,67.56
2023-04-16T05:39:59.138Z,67.56
2023-04-16T05:42:27.107Z,67.56
2023-04-16T05:44:55.219Z,67.65
2023-04-16T05:47:23.168Z,67.49
2023-04-16T05:49:51.138Z,67.35
2023-04-16T05:52:19.131Z,67.22
2023-04-16T05:54:47.074Z,67.27
2023-04-16T05:57:15.073Z,67.00
2023-04-16T05:59:43.026Z,66.59
2023-04-16T06:02:11.257Z,66.42
2023-04-16T06:04:39.272Z,66.28
2023-04-16T06:07:07.175Z,65.96
2023-04-16T06:09:35.061Z,65.54
2023-04-16T06:12:03.165Z,64.99
2023-04-16T06:14:31.180Z,64.37
2023-04-16T06:16:59.142Z,63.73
2023-04-16T06:19:26.995Z,63.25
2023-04-16T06:21:54.864Z,62.80
2023-04-16T06:24:23.260Z,62.33
2023-04-16T06:26:51.104Z,61.50
2023-04-16T06:29:19.059Z,60.66
2023-04-16T06:31:48.137Z,60.18
2023-04-16T06:34:16.404Z,59.98
2023-04-16T06:36:44.388Z,59.69
2023-04-16T06:39:12.453Z,59.42
2023-04-16T06:41:40.416Z,59.02
2023-04-16T06:44:08.288Z,58.57
2023-04-16T06:46:36.401Z,58.54
2023-04-16T06:49:04.306Z,58.34
2023-04-16T06:51:32.304Z,58.26
2023-04-16T06:54:00.585Z,58.31
2023-04-16T06:56:28.466Z,58.54
2023-04-16T06:58:57.852Z,58.52
2023-04-16T07:01:26.006Z,58.10
2023-04-16T07:03:54.878Z,57.30
2023-04-16T07:06:22.965Z,56.83
2023-04-16T07:08:50.922Z,56.43
2023-04-16T07:11:19.441Z,56.22
2023-04-16T07:13:47.422Z,55.33
2023-04-16T07:16:15.299Z,54.92
2023-04-16T07:18:43.238Z,54.53
2023-04-16T07:21:11.503Z,53.45
2023-04-16T07:23:39.524Z,53.12
2023-04-16T07:26:07.698Z,53.19
2023-04-16T07:28:35.886Z,52.35
2023-04-16T07:31:03.959Z,51.85
2023-04-16T07:33:31.920Z,51.03
2023-04-16T07:35:59.912Z,50.72
2023-04-16T07:38:27.844Z,50.80
2023-04-16T07:40:56.965Z,50.50
2023-04-16T07:43:25.090Z,50.60
2023-04-16T07:45:53.085Z,50.55
2023-04-16T07:48:22.235Z,49.91
2023-04-16T07:50:50.408Z,48.92
2023-04-16T07:53:18.416Z,49.17
2023-04-16T07:55:47.520Z,48.00
2023-04-16T07:58:15.399Z,47.57
2023-04-16T08:00:43.431Z,47.20
2023-04-16T08:03:11.617Z,46.72
2023-04-16T08:05:39.821Z,46.86
2023-04-16T08:08:08.148Z,46.86
2023-04-16T08:10:36.067Z,47.07
2023-04-16T08:13:04.299Z,47.15
2023-04-16T08:15:32.480Z,47.01
2023-04-16T08:18:00.641Z,46.94
2023-04-16T08:20:28.665Z,47.17
2023-04-16T08:22:56.813Z,47.10
2023-04-16T08:25:24.817Z,46.65
2023-04-16T08:27:52.757Z,47.27
2023-04-16T08:30:22.214Z,47.27
2023-04-16T08:32:50.606Z,47.40
2023-04-16T08:35:18.543Z,47.43
2023-04-16T08:37:46.656Z,46.97
2023-04-16T08:40:14.585Z,46.69
2023-04-16T08:42:58.765Z,46.40
2023-04-16T08:45:27.802Z,46.17
2023-04-16T08:47:55.969Z,45.50
2023-04-16T08:50:25.579Z,44.88
2023-04-16T08:52:58.687Z,44.62
2023-04-16T08:55:36.046Z,44.62
2023-04-16T08:58:34.662Z,44.28
2023-04-16T09:01:06.280Z,43.63
2023-04-16T09:03:36.476Z,44.25
2023-04-16T09:06:05.621Z,43.96
2023-04-16T09:08:36.010Z,44.71
2023-04-16T09:11:04.771Z,44.85
2023-04-16T09:13:32.686Z,44.74
2023-04-16T09:16:01.182Z,44.84
2023-04-16T09:18:30.839Z,45.27
2023-04-16T09:20:59.085Z,45.43
2023-04-16T09:23:27.050Z,45.72
2023-04-16T09:25:56.645Z,45.74
2023-04-16T09:28:44.170Z,46.17
2023-04-16T09:31:19.543Z,46.06
2023-04-16T09:34:07.902Z,46.43
2023-04-16T09:36:36.988Z,46.12
2023-04-16T09:39:05.009Z,46.29
2023-04-16T09:41:36.198Z,46.48
2023-04-16T09:44:05.712Z,47.06
2023-04-16T09:46:41.175Z,46.94
2023-04-16T09:49:21.475Z,46.40
2023-04-16T09:51:52.854Z,44.62
2023-04-16T09:54:21.095Z,44.48
2023-04-16T09:56:48.957Z,44.65
2023-04-16T09:59:31.214Z,44.64
2023-04-16T10:02:14.971Z,44.95
2023-04-16T10:04:51.484Z,45.10
2023-04-16T10:07:20.350Z,45.03
2023-04-16T10:09:49.149Z,44.90
2023-04-16T10:12:17.270Z,44.45
2023-04-16T10:14:45.284Z,42.96
2023-04-16T10:17:13.418Z,42.12
2023-04-16T10:19:42.232Z,41.83
2023-04-16T10:22:10.169Z,41.64
2023-04-16T10:24:38.861Z,41.52
2023-04-16T10:27:06.906Z,41.02
2023-04-16T10:29:35.276Z,39.52
2023-04-16T10:32:03.882Z,38.57
2023-04-16T10:34:32.344Z,38.41
2023-04-16T10:37:01.541Z,37.66
2023-04-16T10:39:29.899Z,37.37
2023-04-16T10:42:13.616Z,38.03
2023-04-16T10:44:46.171Z,38.04
2023-04-16T10:48:18.895Z,37.33
2023-04-16T10:50:58.101Z,36.98
2023-04-16T10:53:28.021Z,36.34
2023-04-16T10:56:05.139Z,36.25
2023-04-16T10:58:36.907Z,36.35
2023-04-16T11:01:13.681Z,37.38
2023-04-16T11:03:48.312Z,38.26
2023-04-16T11:06:23.966Z,38.84
2023-04-16T11:08:54.904Z,39.03
2023-04-16T11:11:23.874Z,38.12
2023-04-16T11:13:57.061Z,37.10
2023-04-16T11:16:26.354Z,36.59
2023-04-16T11:18:56.773Z,36.20
2023-04-16T11:21:33.669Z,36.18
2023-04-16T11:24:01.627Z,35.46
2023-04-16T11:26:30.972Z,34.53
2023-04-16T11:29:00.363Z,34.62
2023-04-16T11:31:28.792Z,34.98
2023-04-16T11:33:57.230Z,34.92
2023-04-16T11:36:27.423Z,34.27
2023-04-16T11:39:03.069Z,34.21
2023-04-16T11:41:31.176Z,33.58
2023-04-16T11:43:59.245Z,33.72
2023-04-16T11:46:40.762Z,33.90
2023-04-16T11:49:09.359Z,33.45
2023-04-16T11:51:42.379Z,33.77
2023-04-16T11:54:19.504Z,33.59
2023-04-16T11:56:49.150Z,34.05
2023-04-16T11:59:18.114Z,33.95
2023-04-16T12:01:55.920Z,34.68
2023-04-16T12:04:26.943Z,35.42
2023-04-16T12:07:12.262Z,35.87
2023-04-16T12:09:43.120Z,36.22
2023-04-16T12:12:36.768Z,36.47
2023-04-16T12:15:05.276Z,36.68
2023-04-16T12:17:35.333Z,36.84
2023-04-16T12:20:09.638Z,36.80
2023-04-16T12:22:44.510Z,37.00
2023-04-16T12:25:18.146Z,37.53
2023-04-16T12:27:53.360Z,37.80
2023-04-16T12:30:23.966Z,37.92
2023-04-16T12:33:16.448Z,37.87
2023-04-16T12:35:45.083Z,37.79
2023-04-16T12:38:15.173Z,36.77
2023-04-16T12:40:43.680Z,35.78
2023-04-16T12:43:11.901Z,35.53
2023-04-16T12:45:40.862Z,35.02
2023-04-16T12:48:09.038Z,34.65
2023-04-16T12:50:37.083Z,34.43
2023-04-16T12:53:05.094Z,33.35
2023-04-16T12:55:33.197Z,33.02
2023-04-16T12:58:01.774Z,33.16
2023-04-16T13:00:29.909Z,33.53
2023-04-16T13:02:58.138Z,34.37
2023-04-16T13:05:26.777Z,35.12
2023-04-16T13:07:54.718Z,35.49
2023-04-16T13:10:23.681Z,35.74
2023-04-16T13:12:51.785Z,35.69
2023-04-16T13:15:19.918Z,35.91
2023-04-16T13:17:48.032Z,36.07
2023-04-16T13:20:16.146Z,35.93
2023-04-16T13:22:44.285Z,35.47
2023-04-16T13:25:12.221Z,34.47
2023-04-16T13:27:40.140Z,34.19
2023-04-16T13:30:08.577Z,34.26
2023-04-16T13:32:36.926Z,34.62
2023-04-16T13:35:05.354Z,34.83
2023-04-16T13:37:34.568Z,35.25
2023-04-16T13:40:02.579Z,34.94
2023-04-16T13:42:30.810Z,35.17
2023-04-16T13:44:59.044Z,35.38
2023-04-16T13:47:27.135Z,35.19
2023-04-16T13:49:55.328Z,35.45
2023-04-16T13:52:23.380Z,35.80
2023-04-16T13:54:51.693Z,35.90
2023-04-16T13:57:22.958Z,35.49
2023-04-16T13:59:50.945Z,35.05
2023-04-16T14:02:18.998Z,34.31
2023-04-16T14:04:47.058Z,33.95
2023-04-16T14:07:15.800Z,33.88
2023-04-16T14:09:44.131Z,33.91
2023-04-16T14:12:12.329Z,34.19
2023-04-16T14:14:40.330Z,34.77
2023-04-16T14:17:08.461Z,35.36
2023-04-16T14:19:36.637Z,35.72
2023-04-16T14:22:04.619Z,36.36
2023-04-16T14:24:32.756Z,36.61
2023-04-16T14:27:00.909Z,36.77
2023-04-16T14:29:28.850Z,36.71
2023-04-16T14:31:57.247Z,36.89
2023-04-16T14:34:25.308Z,36.87
2023-04-16T14:36:53.397Z,37.14
2023-04-16T14:39:21.568Z,37.09
2023-04-16T14:41:49.630Z,36.96
2023-04-16T14:44:25.706Z,37.15
2023-04-16T14:46:53.900Z,37.36
2023-04-16T14:49:22.039Z,37.46
2023-04-16T14:51:50.205Z,37.69
2023-04-16T14:54:35.827Z,37.97
2023-04-16T14:57:06.303Z,38.33
2023-04-16T14:59:34.225Z,38.58
2023-04-16T15:02:02.193Z,38.74
2023-04-16T15:04:58.058Z,38.73
2023-04-16T15:07:26.467Z,38.88
2023-04-16T15:09:54.469Z,38.91
2023-04-16T15:12:22.646Z,38.88
2023-04-16T15:14:51.830Z,39.05
2023-04-16T15:17:48.330Z,38.76
2023-04-16T15:20:16.416Z,39.29
2023-04-16T15:22:44.525Z,39.50
2023-04-16T15:25:12.780Z,39.74
2023-04-16T15:27:40.706Z,40.02
2023-04-16T15:30:09.126Z,40.34
2023-04-16T15:32:37.292Z,40.69
2023-04-16T15:35:06.222Z,40.77
2023-04-16T15:37:34.263Z,40.96
2023-04-16T15:40:02.397Z,41.09
2023-04-16T15:42:31.352Z,41.22
2023-04-16T15:44:59.697Z,41.22
2023-04-16T15:47:29.166Z,41.15
2023-04-16T15:49:57.207Z,41.20
2023-04-16T15:52:25.365Z,41.46
2023-04-16T15:54:54.859Z,41.36
2023-04-16T15:57:31.209Z,41.75
2023-04-16T16:00:06.994Z,41.96
2023-04-16T16:02:36.260Z,42.18
2023-04-16T16:05:04.754Z,42.22
2023-04-16T16:07:33.576Z,42.03
2023-04-16T16:11:02.918Z,42.03
2023-04-16T16:13:56.512Z,42.07
2023-04-16T16:16:35.156Z,41.89
2023-04-16T16:19:03.362Z,41.82
2023-04-16T16:21:32.622Z,41.79
2023-04-16T16:24:00.720Z,41.79
2023-04-16T16:26:29.122Z,41.77
2023-04-16T16:28:59.650Z,41.85
2023-04-16T16:31:27.586Z,41.93
2023-04-16T16:33:55.653Z,41.77
2023-04-16T16:36:23.779Z,41.65
2023-04-16T16:38:51.777Z,41.86
2023-04-16T16:41:19.818Z,41.75
2023-04-16T16:43:47.867Z,41.63
2023-04-16T16:46:15.880Z,41.74
2023-04-16T16:48:43.887Z,41.89
2023-04-16T16:51:11.966Z,41.86
2023-04-16T16:53:39.946Z,41.98
2023-04-16T16:56:08.010Z,42.03
2023-04-16T16:59:13.744Z,42.16
2023-04-16T17:02:43.631Z,42.19
2023-04-16T17:06:17.640Z,42.28
2023-04-16T17:09:26.884Z,42.44
2023-04-16T17:11:54.967Z,42.40
2023-04-16T17:14:23.981Z,42.42
2023-04-16T17:16:52.109Z,42.49
2023-04-16T17:19:20.341Z,42.58
2023-04-16T17:21:48.349Z,42.65
2023-04-16T17:24:16.650Z,42.73
2023-04-16T17:26:44.689Z,42.78
2023-04-16T17:29:12.760Z,42.76
2023-04-16T17:31:40.909Z,42.76
2023-04-16T17:34:09.055Z,42.95
2023-04-16T17:36:37.223Z,43.02
2023-04-16T17:39:05.543Z,43.05
2023-04-16T17:41:33.816Z,43.13
2023-04-16T17:44:01.824Z,43.22
2023-04-16T17:46:29.973Z,43.35
2023-04-16T17:48:58.296Z,43.42
2023-04-16T17:51:27.479Z,43.65
2023-04-16T17:53:55.862Z,43.73
2023-04-16T17:56:24.210Z,43.76
2023-04-16T17:58:52.191Z,43.83
2023-04-16T18:01:20.928Z,43.91
2023-04-16T18:03:49.436Z,43.94
2023-04-16T18:06:17.902Z,44.05
2023-04-16T18:08:47.717Z,44.26
2023-04-16T18:11:16.053Z,44.32
2023-04-16T18:13:44.159Z,44.30
2023-04-16T18:16:18.111Z,44.29
2023-04-16T18:18:46.530Z,44.25
2023-04-16T18:21:15.113Z,44.42
2023-04-16T18:23:45.680Z,44.31
2023-04-16T18:26:18.603Z,44.41
2023-04-16T18:28:49.214Z,44.48
2023-04-16T18:31:20.864Z,44.54
2023-04-16T18:33:57.624Z,44.60
2023-04-16T18:36:27.445Z,44.68
2023-04-16T18:39:02.181Z,44.68
2023-04-16T18:41:44.716Z,44.75
2023-04-16T18:44:13.125Z,44.89
2023-04-16T18:46:41.607Z,45.00
2023-04-16T18:49:12.415Z,45.02
2023-04-16T18:51:42.157Z,45.07
2023-04-16T18:54:10.660Z,45.13
2023-04-16T18:56:38.874Z,45.16
2023-04-16T18:59:07.273Z,45.31
2023-04-16T19:01:36.141Z,45.27
2023-04-16T19:04:05.053Z,45.33
2023-04-16T19:06:57.397Z,45.49
2023-04-16T19:09:27.281Z,45.59
2023-04-16T19:11:56.168Z,45.73
2023-04-16T19:14:24.346Z,45.82
2023-04-16T19:16:52.572Z,45.93
2023-04-16T19:19:20.905Z,46.07
2023-04-16T19:21:49.780Z,46.10
2023-04-16T19:24:18.973Z,46.20
2023-04-16T19:26:47.096Z,46.43
2023-04-16T19:29:15.337Z,46.44
2023-04-16T19:31:43.504Z,46.50
2023-04-16T19:34:11.620Z,46.49
2023-04-16T19:36:40.295Z,46.55
2023-04-16T19:39:14.287Z,46.86
2023-04-16T19:41:45.404Z,47.14
2023-04-16T19:44:15.922Z,47.41
2023-04-16T19:46:44.044Z,47.51
2023-04-16T19:49:12.520Z,47.56
2023-04-16T19:51:40.982Z,47.67
2023-04-16T19:54:09.334Z,47.77
2023-04-16T19:56:37.656Z,47.94
2023-04-16T19:59:07.256Z,47.98
2023-04-16T20:01:35.835Z,48.01
2023-04-16T20:04:04.281Z,48.06
2023-04-16T20:06:35.167Z,48.22
2023-04-16T20:09:03.648Z,48.39
2023-04-16T20:11:31.765Z,48.65
2023-04-16T20:14:01.075Z,48.97
2023-04-16T20:16:31.861Z,49.14
2023-04-16T20:19:04.074Z,49.24
2023-04-16T20:21:33.327Z,49.32
2023-04-16T20:24:01.894Z,49.44
2023-04-16T20:26:33.847Z,49.69
2023-04-16T20:29:03.769Z,49.78
2023-04-16T20:31:31.947Z,49.88
2023-04-16T20:34:00.121Z,50.19
2023-04-16T20:36:28.145Z,50.20
2023-04-16T20:38:56.237Z,50.23
2023-04-16T20:41:25.274Z,50.26
2023-04-16T20:44:53.597Z,50.46
2023-04-16T20:48:03.108Z,50.45
2023-04-16T20:50:31.306Z,50.54
2023-04-16T20:53:20.248Z,50.61
2023-04-16T20:56:10.165Z,50.69
2023-04-16T20:58:38.158Z,50.77
2023-04-16T21:01:06.358Z,50.75
2023-04-16T21:03:54.947Z,50.91
2023-04-16T21:06:23.148Z,51.05
2023-04-16T21:09:00.723Z,51.15
2023-04-16T21:11:33.390Z,51.35
2023-04-16T21:14:13.781Z,51.60
2023-04-16T21:16:41.904Z,51.79
2023-04-16T21:19:10.259Z,51.86
2023-04-16T21:21:39.038Z,52.08
2023-04-16T21:24:07.397Z,52.32
2023-04-16T21:26:35.327Z,52.50
2023-04-16T21:29:04.195Z,52.60
2023-04-16T21:31:32.341Z,52.70
2023-04-16T21:35:01.106Z,52.71
2023-04-16T21:37:45.864Z,52.87
2023-04-16T21:40:23.200Z,52.99
2023-04-16T21:42:51.759Z,53.04
2023-04-16T21:45:19.834Z,53.02
2023-04-16T21:47:47.903Z,53.11
2023-04-16T21:50:16.076Z,53.13
2023-04-16T21:52:46.325Z,53.42
2023-04-16T21:55:54.096Z,53.28
2023-04-16T21:59:30.939Z,53.27
2023-04-16T22:03:43.624Z,53.26
2023-04-16T22:07:16.903Z,53.32
2023-04-16T22:09:45.056Z,53.42
2023-04-16T22:12:13.017Z,53.39
2023-04-16T22:14:49.174Z,53.62
2023-04-16T22:17:27.812Z,53.64
2023-04-16T22:19:57.651Z,53.64
2023-04-16T22:22:25.643Z,53.78
2023-04-16T22:24:53.755Z,53.78
2023-04-16T22:27:42.280Z,53.93
2023-04-16T22:30:10.843Z,54.01
2023-04-16T22:32:38.972Z,54.11
2023-04-16T22:35:15.606Z,54.22
2023-04-16T22:38:44.510Z,54.41
2023-04-16T22:41:12.709Z,54.74
2023-04-16T22:43:40.925Z,54.91
2023-04-16T22:46:09.670Z,54.97
2023-04-16T22:48:38.778Z,54.98
2023-04-16T22:51:08.863Z,55.16
2023-04-16T22:53:36.981Z,55.25
2023-04-16T22:56:06.202Z,55.32
2023-04-16T22:59:16.236Z,55.49
2023-04-16T23:02:21.889Z,55.55
2023-04-16T23:04:49.956Z,55.53
2023-04-16T23:07:18.221Z,55.71
2023-04-16T23:09:46.288Z,55.79
2023-04-16T23:12:16.529Z,55.78
2023-04-16T23:14:46.061Z,55.87
2023-04-16T23:18:14.505Z,55.97
2023-04-16T23:20:42.822Z,56.10
2023-04-16T23:23:10.846Z,56.22
2023-04-16T23:25:41.310Z,56.28
2023-04-16T23:28:37.431Z,56.36
2023-04-16T23:31:47.479Z,56.37
2023-04-16T23:34:16.353Z,56.41
2023-04-16T23:37:04.513Z,56.40
2023-04-16T23:39:33.280Z,56.32
2023-04-16T23:42:01.921Z,56.30
2023-04-16T23:44:30.742Z,56.45
2023-04-16T23:46:59.247Z,56.44
2023-04-16T23:49:27.653Z,56.39
2023-04-16T23:51:55.625Z,56.53
2023-04-16T23:54:23.806Z,56.58
2023-04-16T23:56:51.845Z,56.65
2023-04-16T23:59:40.665Z,56.72
